sensor_id;sensor_type;location;lat;lon;timestamp;pressure;altitude;pressure_sealevel;temperature;humidity
81937;BME280;71432;56.558;9.036;2023-08-17T00:00:14;102278.50;;;24.00;48.74
81937;BME280;71432;56.558;9.036;2023-08-17T00:02:40;102281.84;;;24.02;48.82
81937;BME280;71432;56.558;9.036;2023-08-17T00:05:06;102281.00;;;24.02;48.82
81937;BME280;71432;56.558;9.036;2023-08-17T00:07:32;102281.13;;;24.00;48.98
81937;BME280;71432;56.558;9.036;2023-08-17T00:09:57;102281.00;;;24.02;48.64
81937;BME280;71432;56.558;9.036;2023-08-17T00:12:23;102270.69;;;23.99;49.01
81937;BME280;71432;56.558;9.036;2023-08-17T00:14:48;102274.16;;;23.99;48.77
81937;BME280;71432;56.558;9.036;2023-08-17T00:17:13;102273.31;;;23.99;48.98
81937;BME280;71432;56.558;9.036;2023-08-17T00:19:39;102270.69;;;23.99;48.80
81937;BME280;71432;56.558;9.036;2023-08-17T00:22:04;102273.31;;;23.99;48.94
81937;BME280;71432;56.558;9.036;2023-08-17T00:24:29;102272.50;;;23.98;48.88
81937;BME280;71432;56.558;9.036;2023-08-17T00:26:55;102267.22;;;23.98;48.76
81937;BME280;71432;56.558;9.036;2023-08-17T00:29:20;102269.88;;;23.98;49.04
81937;BME280;71432;56.558;9.036;2023-08-17T00:31:45;102272.50;;;23.98;48.79
81937;BME280;71432;56.558;9.036;2023-08-17T00:34:11;102283.09;;;23.98;49.08
81937;BME280;71432;56.558;9.036;2023-08-17T00:36:36;102282.25;;;23.98;48.71
81937;BME280;71432;56.558;9.036;2023-08-17T00:39:01;102277.91;;;23.97;49.01
81937;BME280;71432;56.558;9.036;2023-08-17T00:41:27;102281.53;;;23.96;49.19
81937;BME280;71432;56.558;9.036;2023-08-17T00:43:53;102278.88;;;23.96;48.71
81937;BME280;71432;56.558;9.036;2023-08-17T00:46:19;102276.22;;;23.96;48.91
81937;BME280;71432;56.558;9.036;2023-08-17T00:48:47;102285.97;;;23.95;48.77
81937;BME280;71432;56.558;9.036;2023-08-17T00:51:13;102292.09;;;23.96;48.53
81937;BME280;71432;56.558;9.036;2023-08-17T00:53:39;102288.63;;;23.95;48.99
81937;BME280;71432;56.558;9.036;2023-08-17T00:56:04;102285.28;;;23.93;48.96
81937;BME280;71432;56.558;9.036;2023-08-17T00:58:30;102295.59;;;23.96;48.59
81937;BME280;71432;56.558;9.036;2023-08-17T01:00:56;102294.88;;;23.94;48.82
81937;BME280;71432;56.558;9.036;2023-08-17T01:03:22;102304.50;;;23.95;48.78
81937;BME280;71432;56.558;9.036;2023-08-17T01:05:48;102301.84;;;23.95;49.15
81937;BME280;71432;56.558;9.036;2023-08-17T01:08:13;102308.09;;;23.94;49.07
81937;BME280;71432;56.558;9.036;2023-08-17T01:11:02;102302.00;;;23.93;49.03
81937;BME280;71432;56.558;9.036;2023-08-17T01:13:38;102305.44;;;23.94;48.92
81937;BME280;71432;56.558;9.036;2023-08-17T01:16:12;102299.34;;;23.93;49.07
81937;BME280;71432;56.558;9.036;2023-08-17T01:18:40;102294.06;;;23.93;48.93
81937;BME280;71432;56.558;9.036;2023-08-17T01:21:10;102298.34;;;23.94;49.10
81937;BME280;71432;56.558;9.036;2023-08-17T01:23:38;102291.25;;;23.95;49.06
81937;BME280;71432;56.558;9.036;2023-08-17T01:26:04;102287.94;;;23.93;49.32
81937;BME280;71432;56.558;9.036;2023-08-17T01:28:29;102292.22;;;23.94;49.08
81937;BME280;71432;56.558;9.036;2023-08-17T01:31:05;102303.78;;;23.93;49.05
81937;BME280;71432;56.558;9.036;2023-08-17T01:33:42;102311.72;;;23.93;49.05
81937;BME280;71432;56.558;9.036;2023-08-17T01:36:15;102314.22;;;23.94;48.96
81937;BME280;71432;56.558;9.036;2023-08-17T01:38:43;102311.72;;;23.93;49.21
81937;BME280;71432;56.558;9.036;2023-08-17T01:41:10;102315.22;;;23.93;49.36
81937;BME280;71432;56.558;9.036;2023-08-17T01:43:41;102317.88;;;23.93;49.48
81937;BME280;71432;56.558;9.036;2023-08-17T01:46:15;102313.53;;;23.92;49.16
81937;BME280;71432;56.558;9.036;2023-08-17T01:48:41;102310.88;;;23.92;49.32
81937;BME280;71432;56.558;9.036;2023-08-17T01:51:07;102307.41;;;23.92;49.19
81937;BME280;71432;56.558;9.036;2023-08-17T01:53:33;102310.03;;;23.92;49.12
81937;BME280;71432;56.558;9.036;2023-08-17T01:55:58;102314.50;;;23.91;49.14
81937;BME280;71432;56.558;9.036;2023-08-17T01:58:24;102311.84;;;23.91;49.03
81937;BME280;71432;56.558;9.036;2023-08-17T02:00:49;102309.19;;;23.91;49.36
81937;BME280;71432;56.558;9.036;2023-08-17T02:03:14;102304.03;;;23.90;49.00
81937;BME280;71432;56.558;9.036;2023-08-17T02:05:44;102312.69;;;23.92;49.12
81937;BME280;71432;56.558;9.036;2023-08-17T02:08:10;102316.31;;;23.91;49.30
81937;BME280;71432;56.558;9.036;2023-08-17T02:10:36;102316.41;;;23.89;49.27
81937;BME280;71432;56.558;9.036;2023-08-17T02:13:01;102314.63;;;23.90;48.75
81937;BME280;71432;56.558;9.036;2023-08-17T02:15:26;102324.22;;;23.91;48.72
81937;BME280;71432;56.558;9.036;2023-08-17T02:17:52;102326.88;;;23.91;48.90
81937;BME280;71432;56.558;9.036;2023-08-17T02:20:17;102337.47;;;23.91;48.91
81937;BME280;71432;56.558;9.036;2023-08-17T02:22:42;102324.22;;;23.91;49.17
81937;BME280;71432;56.558;9.036;2023-08-17T02:25:08;102319.78;;;23.91;49.04
81937;BME280;71432;56.558;9.036;2023-08-17T02:27:33;102321.59;;;23.91;49.11
81937;BME280;71432;56.558;9.036;2023-08-17T02:29:59;102313.66;;;23.91;49.05
81937;BME280;71432;56.558;9.036;2023-08-17T02:32:24;102313.66;;;23.91;49.29
81937;BME280;71432;56.558;9.036;2023-08-17T02:34:49;102310.31;;;23.89;48.93
81937;BME280;71432;56.558;9.036;2023-08-17T02:37:15;102310.31;;;23.89;49.12
81937;BME280;71432;56.558;9.036;2023-08-17T02:39:40;102318.09;;;23.90;49.22
81937;BME280;71432;56.558;9.036;2023-08-17T02:42:06;102317.41;;;23.88;49.11
81937;BME280;71432;56.558;9.036;2023-08-17T02:44:31;102313.91;;;23.88;49.17
81937;BME280;71432;56.558;9.036;2023-08-17T02:46:56;102319.91;;;23.90;49.29
81937;BME280;71432;56.558;9.036;2023-08-17T02:49:22;102322.53;;;23.90;48.85
81937;BME280;71432;56.558;9.036;2023-08-17T02:51:47;102321.84;;;23.88;48.94
81937;BME280;71432;56.558;9.036;2023-08-17T02:54:12;102314.75;;;23.88;49.15
81937;BME280;71432;56.558;9.036;2023-08-17T02:56:38;102308.38;;;23.91;48.78
81937;BME280;71432;56.558;9.036;2023-08-17T02:59:03;102309.31;;;23.90;49.23
81937;BME280;71432;56.558;9.036;2023-08-17T03:01:28;102302.38;;;23.89;48.95
81937;BME280;71432;56.558;9.036;2023-08-17T03:03:54;102305.84;;;23.89;49.23
81937;BME280;71432;56.558;9.036;2023-08-17T03:06:20;102305.84;;;23.89;49.04
81937;BME280;71432;56.558;9.036;2023-08-17T03:08:45;102304.19;;;23.88;49.35
81937;BME280;71432;56.558;9.036;2023-08-17T03:11:10;102302.38;;;23.89;48.95
81937;BME280;71432;56.558;9.036;2023-08-17T03:13:36;102306.09;;;23.86;49.00
81937;BME280;71432;56.558;9.036;2023-08-17T03:16:01;102306.00;;;23.88;49.20
81937;BME280;71432;56.558;9.036;2023-08-17T03:18:26;102300.69;;;23.88;49.21
81937;BME280;71432;56.558;9.036;2023-08-17T03:20:52;102302.50;;;23.87;49.11
81937;BME280;71432;56.558;9.036;2023-08-17T03:23:17;102310.56;;;23.86;49.54
81937;BME280;71432;56.558;9.036;2023-08-17T03:25:43;102309.59;;;23.87;49.08
81937;BME280;71432;56.558;9.036;2023-08-17T03:28:08;102307.91;;;23.86;48.92
81937;BME280;71432;56.558;9.036;2023-08-17T03:30:33;102314.88;;;23.87;48.93
81937;BME280;71432;56.558;9.036;2023-08-17T03:32:59;102310.56;;;23.86;49.11
81937;BME280;71432;56.558;9.036;2023-08-17T03:35:24;102300.94;;;23.85;48.83
81937;BME280;71432;56.558;9.036;2023-08-17T03:37:50;102311.41;;;23.86;49.05
81937;BME280;71432;56.558;9.036;2023-08-17T03:40:15;102305.25;;;23.86;49.35
81937;BME280;71432;56.558;9.036;2023-08-17T03:42:40;102309.59;;;23.87;49.12
81937;BME280;71432;56.558;9.036;2023-08-17T03:45:07;102316.69;;;23.86;49.16
81937;BME280;71432;56.558;9.036;2023-08-17T03:47:32;102315.84;;;23.86;49.10
81937;BME280;71432;56.558;9.036;2023-08-17T03:49:57;102325.56;;;23.85;49.35
81937;BME280;71432;56.558;9.036;2023-08-17T03:52:23;102319.44;;;23.85;49.33
81937;BME280;71432;56.558;9.036;2023-08-17T03:54:48;102320.28;;;23.85;49.20
81937;BME280;71432;56.558;9.036;2023-08-17T03:57:13;102323.09;;;23.84;49.11
81937;BME280;71432;56.558;9.036;2023-08-17T03:59:39;102323.94;;;23.84;49.07
81937;BME280;71432;56.558;9.036;2023-08-17T04:02:04;102330.75;;;23.87;49.18
81937;BME280;71432;56.558;9.036;2023-08-17T04:04:30;102331.72;;;23.86;49.19
81937;BME280;71432;56.558;9.036;2023-08-17T04:06:55;102336.16;;;23.85;48.99
81937;BME280;71432;56.558;9.036;2023-08-17T04:09:20;102331.59;;;23.87;49.20
81937;BME280;71432;56.558;9.036;2023-08-17T04:11:46;102329.91;;;23.86;49.38
81937;BME280;71432;56.558;9.036;2023-08-17T04:14:11;102332.66;;;23.85;49.50
81937;BME280;71432;56.558;9.036;2023-08-17T04:16:37;102333.50;;;23.85;49.30
81937;BME280;71432;56.558;9.036;2023-08-17T04:19:03;102335.19;;;23.86;49.52
81937;BME280;71432;56.558;9.036;2023-08-17T04:21:28;102326.41;;;23.86;49.16
81937;BME280;71432;56.558;9.036;2023-08-17T04:23:53;102331.94;;;23.62;48.00
81937;BME280;71432;56.558;9.036;2023-08-17T04:26:19;102329.00;;;23.44;47.37
81937;BME280;71432;56.558;9.036;2023-08-17T04:28:44;102332.72;;;23.42;47.18
81937;BME280;71432;56.558;9.036;2023-08-17T04:31:09;102327.78;;;23.37;46.70
81937;BME280;71432;56.558;9.036;2023-08-17T04:33:35;102339.94;;;23.29;46.71
81937;BME280;71432;56.558;9.036;2023-08-17T04:36:00;102333.31;;;23.45;46.34
81937;BME280;71432;56.558;9.036;2023-08-17T04:38:26;102332.94;;;23.50;46.77
81937;BME280;71432;56.558;9.036;2023-08-17T04:40:51;102339.53;;;23.56;47.42
81937;BME280;71432;56.558;9.036;2023-08-17T04:43:16;102343.34;;;23.63;47.28
81937;BME280;71432;56.558;9.036;2023-08-17T04:45:42;102341.06;;;23.69;47.53
81937;BME280;71432;56.558;9.036;2023-08-17T04:48:07;102339.25;;;23.70;47.68
81937;BME280;71432;56.558;9.036;2023-08-17T04:50:33;102339.38;;;23.68;48.66
81937;BME280;71432;56.558;9.036;2023-08-17T04:52:58;102340.09;;;23.70;48.50
81937;BME280;71432;56.558;9.036;2023-08-17T04:55:23;102336.81;;;23.78;48.47
81937;BME280;71432;56.558;9.036;2023-08-17T04:57:49;102332.94;;;23.82;48.75
81937;BME280;71432;56.558;9.036;2023-08-17T05:00:15;102334.50;;;23.84;48.78
81937;BME280;71432;56.558;9.036;2023-08-17T05:02:40;102338.94;;;23.84;49.22
81937;BME280;71432;56.558;9.036;2023-08-17T05:05:06;102334.34;;;23.86;49.24
81937;BME280;71432;56.558;9.036;2023-08-17T05:07:33;102336.88;;;23.87;48.99
81937;BME280;71432;56.558;9.036;2023-08-17T05:09:58;102340.38;;;23.88;49.34
81937;BME280;71432;56.558;9.036;2023-08-17T05:12:24;102338.56;;;23.88;49.11
81937;BME280;71432;56.558;9.036;2023-08-17T05:14:49;102334.81;;;23.91;49.16
81937;BME280;71432;56.558;9.036;2023-08-17T05:17:14;102342.63;;;23.92;49.46
81937;BME280;71432;56.558;9.036;2023-08-17T05:19:40;102343.59;;;23.91;49.45
81937;BME280;71432;56.558;9.036;2023-08-17T05:22:10;102337.34;;;23.92;49.50
81937;BME280;71432;56.558;9.036;2023-08-17T05:24:35;102344.31;;;23.93;49.77
81937;BME280;71432;56.558;9.036;2023-08-17T05:27:01;102339.84;;;23.94;49.62
81937;BME280;71432;56.558;9.036;2023-08-17T05:29:26;102337.34;;;23.92;49.63
81937;BME280;71432;56.558;9.036;2023-08-17T05:31:51;102340.38;;;23.88;49.31
81937;BME280;71432;56.558;9.036;2023-08-17T05:34:17;102346.25;;;23.60;48.13
81937;BME280;71432;56.558;9.036;2023-08-17T05:36:42;102352.22;;;23.73;48.11
81937;BME280;71432;56.558;9.036;2023-08-17T05:39:07;102350.03;;;23.78;48.52
81937;BME280;71432;56.558;9.036;2023-08-17T05:41:32;102352.56;;;23.79;48.87
81937;BME280;71432;56.558;9.036;2023-08-17T05:43:58;102359.50;;;23.80;49.09
81937;BME280;71432;56.558;9.036;2023-08-17T05:46:23;102361.06;;;23.83;49.19
81937;BME280;71432;56.558;9.036;2023-08-17T05:48:49;102358.44;;;23.83;49.06
81937;BME280;71432;56.558;9.036;2023-08-17T05:51:14;102364.56;;;23.83;49.04
81937;BME280;71432;56.558;9.036;2023-08-17T05:53:39;102357.31;;;23.85;49.22
81937;BME280;71432;56.558;9.036;2023-08-17T05:56:05;102365.50;;;23.82;49.32
81937;BME280;71432;56.558;9.036;2023-08-17T05:58:30;102362.88;;;23.82;49.25
81937;BME280;71432;56.558;9.036;2023-08-17T06:01:04;102369.84;;;23.83;49.23
81937;BME280;71432;56.558;9.036;2023-08-17T06:03:29;102369.00;;;23.83;49.12
81937;BME280;71432;56.558;9.036;2023-08-17T06:05:54;102372.59;;;23.82;49.12
81937;BME280;71432;56.558;9.036;2023-08-17T06:08:20;102374.28;;;23.83;49.22
81937;BME280;71432;56.558;9.036;2023-08-17T06:10:45;102380.41;;;23.83;49.40
81937;BME280;71432;56.558;9.036;2023-08-17T06:13:10;102382.91;;;23.85;49.03
81937;BME280;71432;56.558;9.036;2023-08-17T06:15:36;102385.56;;;23.85;49.19
81937;BME280;71432;56.558;9.036;2023-08-17T06:18:01;102382.91;;;23.85;49.21
81937;BME280;71432;56.558;9.036;2023-08-17T06:20:26;102382.09;;;23.84;49.26
81937;BME280;71432;56.558;9.036;2023-08-17T06:22:52;102381.38;;;23.82;49.60
81937;BME280;71432;56.558;9.036;2023-08-17T06:25:17;102392.81;;;23.83;49.22
81937;BME280;71432;56.558;9.036;2023-08-17T06:27:42;102401.59;;;23.83;49.29
81937;BME280;71432;56.558;9.036;2023-08-17T06:30:11;102401.22;;;23.77;48.45
81937;BME280;71432;56.558;9.036;2023-08-17T06:32:37;102408.66;;;23.51;47.37
81937;BME280;71432;56.558;9.036;2023-08-17T06:35:02;102400.25;;;23.46;47.53
81937;BME280;71432;56.558;9.036;2023-08-17T06:37:27;102406.84;;;23.52;47.36
81937;BME280;71432;56.558;9.036;2023-08-17T06:39:53;102407.91;;;23.60;47.27
81937;BME280;71432;56.558;9.036;2023-08-17T06:42:19;102417.16;;;23.66;47.45
81937;BME280;71432;56.558;9.036;2023-08-17T06:44:44;102420.25;;;23.71;47.50
81937;BME280;71432;56.558;9.036;2023-08-17T06:47:09;102415.78;;;23.71;47.73
81937;BME280;71432;56.558;9.036;2023-08-17T06:49:35;102419.03;;;23.75;47.82
81937;BME280;71432;56.558;9.036;2023-08-17T06:52:00;102412.91;;;23.74;47.61
81937;BME280;71432;56.558;9.036;2023-08-17T06:54:25;102418.06;;;23.76;47.91
81937;BME280;71432;56.558;9.036;2023-08-17T06:56:51;102415.41;;;23.76;47.80
81937;BME280;71432;56.558;9.036;2023-08-17T06:59:16;102410.84;;;23.78;47.63
81937;BME280;71432;56.558;9.036;2023-08-17T07:01:42;102405.56;;;23.78;47.93
81937;BME280;71432;56.558;9.036;2023-08-17T07:04:07;102412.53;;;23.79;48.04
81937;BME280;71432;56.558;9.036;2023-08-17T07:06:32;102413.38;;;23.79;47.67
81937;BME280;71432;56.558;9.036;2023-08-17T07:08:58;102409.91;;;23.79;48.02
81937;BME280;71432;56.558;9.036;2023-08-17T07:11:24;102420.47;;;23.79;47.75
81937;BME280;71432;56.558;9.036;2023-08-17T07:13:49;102418.53;;;23.81;47.71
81937;BME280;71432;56.558;9.036;2023-08-17T07:16:15;102410.59;;;23.81;47.93
81937;BME280;71432;56.558;9.036;2023-08-17T07:18:40;102416.72;;;23.81;48.26
81937;BME280;71432;56.558;9.036;2023-08-17T07:21:05;102420.09;;;23.83;47.67
81937;BME280;71432;56.558;9.036;2023-08-17T07:23:31;102420.78;;;23.85;48.05
81937;BME280;71432;56.558;9.036;2023-08-17T07:25:56;102424.53;;;23.83;48.01
81937;BME280;71432;56.558;9.036;2023-08-17T07:28:21;102423.44;;;23.85;47.62
81937;BME280;71432;56.558;9.036;2023-08-17T07:30:47;102428.72;;;23.85;48.24
81937;BME280;71432;56.558;9.036;2023-08-17T07:33:12;102431.25;;;23.87;47.89
81937;BME280;71432;56.558;9.036;2023-08-17T07:35:37;102429.44;;;23.87;47.82
81937;BME280;71432;56.558;9.036;2023-08-17T07:38:03;102431.38;;;23.85;47.96
81937;BME280;71432;56.558;9.036;2023-08-17T07:40:28;102429.44;;;23.87;48.18
81937;BME280;71432;56.558;9.036;2023-08-17T07:42:54;102433.06;;;23.86;48.18
81937;BME280;71432;56.558;9.036;2023-08-17T07:45:19;102432.09;;;23.87;47.95
81937;BME280;71432;56.558;9.036;2023-08-17T07:47:44;102431.25;;;23.87;48.26
81937;BME280;71432;56.558;9.036;2023-08-17T07:50:10;102432.09;;;23.87;48.15
81937;BME280;71432;56.558;9.036;2023-08-17T07:52:35;102432.22;;;23.86;48.17
81937;BME280;71432;56.558;9.036;2023-08-17T07:55:00;102428.63;;;23.87;47.93
81937;BME280;71432;56.558;9.036;2023-08-17T07:57:26;102434.75;;;23.87;47.95
81937;BME280;71432;56.558;9.036;2023-08-17T07:59:51;102429.44;;;23.87;48.10
81937;BME280;71432;56.558;9.036;2023-08-17T08:02:18;102431.97;;;23.89;48.19
81937;BME280;71432;56.558;9.036;2023-08-17T08:04:44;102436.28;;;23.90;47.79
81937;BME280;71432;56.558;9.036;2023-08-17T08:07:10;102438.09;;;23.89;48.20
81937;BME280;71432;56.558;9.036;2023-08-17T08:09:35;102445.22;;;23.89;48.02
81937;BME280;71432;56.558;9.036;2023-08-17T08:12:01;102435.59;;;23.88;47.88
81937;BME280;71432;56.558;9.036;2023-08-17T08:14:26;102437.38;;;23.87;48.02
81937;BME280;71432;56.558;9.036;2023-08-17T08:16:52;102439.19;;;23.87;48.01
81937;BME280;71432;56.558;9.036;2023-08-17T08:19:17;102438.09;;;23.89;48.12
81937;BME280;71432;56.558;9.036;2023-08-17T08:21:42;102440.88;;;23.88;47.66
81937;BME280;71432;56.558;9.036;2023-08-17T08:24:08;102441.56;;;23.90;48.04
81937;BME280;71432;56.558;9.036;2023-08-17T08:26:33;102440.72;;;23.89;47.83
81937;BME280;71432;56.558;9.036;2023-08-17T08:28:58;102445.31;;;23.87;48.08
81937;BME280;71432;56.558;9.036;2023-08-17T08:31:24;102443.53;;;23.88;48.15
81937;BME280;71432;56.558;9.036;2023-08-17T08:33:49;102445.22;;;23.89;47.76
81937;BME280;71432;56.558;9.036;2023-08-17T08:36:14;102446.88;;;23.90;48.18
81937;BME280;71432;56.558;9.036;2023-08-17T08:38:40;102452.88;;;23.92;48.20
81937;BME280;71432;56.558;9.036;2023-08-17T08:41:05;102454.69;;;23.91;48.19
81937;BME280;71432;56.558;9.036;2023-08-17T08:43:33;102454.69;;;23.91;48.31
81937;BME280;71432;56.558;9.036;2023-08-17T08:45:59;102459.88;;;23.93;48.27
81937;BME280;71432;56.558;9.036;2023-08-17T08:48:24;102457.22;;;23.93;48.06
81937;BME280;71432;56.558;9.036;2023-08-17T08:50:54;102453.59;;;23.94;47.57
81937;BME280;71432;56.558;9.036;2023-08-17T08:53:29;102462.50;;;23.93;47.81
81937;BME280;71432;56.558;9.036;2023-08-17T08:55:58;102461.88;;;23.89;47.52
81937;BME280;71432;56.558;9.036;2023-08-17T08:58:29;102460.34;;;23.87;47.53
81937;BME280;71432;56.558;9.036;2023-08-17T09:00:55;102458.28;;;23.90;47.18
81937;BME280;71432;56.558;9.036;2023-08-17T09:03:22;102459.00;;;23.92;47.65
81937;BME280;71432;56.558;9.036;2023-08-17T09:05:49;102458.06;;;23.93;47.83
81937;BME280;71432;56.558;9.036;2023-08-17T09:08:20;102460.72;;;23.93;47.58
81937;BME280;71432;56.558;9.036;2023-08-17T09:10:46;102461.28;;;23.97;47.70
81937;BME280;71432;56.558;9.036;2023-08-17T09:13:11;102471.88;;;23.97;48.14
81937;BME280;71432;56.558;9.036;2023-08-17T09:15:37;102467.53;;;23.96;48.08
81937;BME280;71432;56.558;9.036;2023-08-17T09:18:05;102467.53;;;23.96;48.09
81937;BME280;71432;56.558;9.036;2023-08-17T09:20:41;102477.38;;;23.94;48.26
81937;BME280;71432;56.558;9.036;2023-08-17T09:23:11;102472.47;;;23.89;47.80
81937;BME280;71432;56.558;9.036;2023-08-17T09:25:40;102478.75;;;23.88;47.77
81937;BME280;71432;56.558;9.036;2023-08-17T09:28:07;102476.09;;;23.88;47.95
81937;BME280;71432;56.558;9.036;2023-08-17T09:30:58;102471.78;;;23.87;48.18
81937;BME280;71432;56.558;9.036;2023-08-17T09:33:26;102471.78;;;23.87;47.95
81937;BME280;71432;56.558;9.036;2023-08-17T09:35:53;102474.41;;;23.87;48.44
81937;BME280;71432;56.558;9.036;2023-08-17T09:38:19;102465.63;;;23.87;48.28
81937;BME280;71432;56.558;9.036;2023-08-17T09:40:45;102457.59;;;23.88;48.18
81937;BME280;71432;56.558;9.036;2023-08-17T09:43:10;102460.34;;;23.87;48.24
81937;BME280;71432;56.558;9.036;2023-08-17T09:45:39;102456.03;;;23.86;48.19
81937;BME280;71432;56.558;9.036;2023-08-17T09:48:06;102463.25;;;23.84;47.64
81937;BME280;71432;56.558;9.036;2023-08-17T09:50:31;102464.91;;;23.85;47.69
81937;BME280;71432;56.558;9.036;2023-08-17T09:52:57;102462.41;;;23.83;46.99
81937;BME280;71432;56.558;9.036;2023-08-17T09:55:23;102464.22;;;23.83;47.32
81937;BME280;71432;56.558;9.036;2023-08-17T09:57:49;102462.41;;;23.83;46.85
81937;BME280;71432;56.558;9.036;2023-08-17T10:00:16;102464.31;;;23.81;46.68
81937;BME280;71432;56.558;9.036;2023-08-17T10:02:44;102464.31;;;23.81;46.65
81937;BME280;71432;56.558;9.036;2023-08-17T10:05:11;102465.16;;;23.82;46.56
81937;BME280;71432;56.558;9.036;2023-08-17T10:07:38;102471.41;;;23.81;46.55
81937;BME280;71432;56.558;9.036;2023-08-17T10:10:06;102473.94;;;23.82;46.78
81937;BME280;71432;56.558;9.036;2023-08-17T10:12:37;102470.56;;;23.80;46.87
81937;BME280;71432;56.558;9.036;2023-08-17T10:15:10;102468.78;;;23.81;46.70
81937;BME280;71432;56.558;9.036;2023-08-17T10:18:07;102467.81;;;23.82;46.81
81937;BME280;71432;56.558;9.036;2023-08-17T10:20:34;102471.94;;;23.75;45.55
81937;BME280;71432;56.558;9.036;2023-08-17T10:23:17;102473.75;;;23.63;45.91
81937;BME280;71432;56.558;9.036;2023-08-17T10:25:44;102468.84;;;23.47;45.26
81937;BME280;71432;56.558;9.036;2023-08-17T10:28:10;102472.56;;;23.45;45.62
81937;BME280;71432;56.558;9.036;2023-08-17T10:30:37;102471.72;;;23.33;44.69
81937;BME280;71432;56.558;9.036;2023-08-17T10:33:07;102469.78;;;23.13;44.38
81937;BME280;71432;56.558;9.036;2023-08-17T10:35:33;102470.84;;;23.22;44.71
81937;BME280;71432;56.558;9.036;2023-08-17T10:37:59;102452.63;;;23.08;43.94
81937;BME280;71432;56.558;9.036;2023-08-17T10:40:26;102447.44;;;22.84;44.63
81937;BME280;71432;56.558;9.036;2023-08-17T10:42:56;102453.47;;;22.97;44.69
81937;BME280;71432;56.558;9.036;2023-08-17T10:45:25;102448.06;;;22.98;44.06
81937;BME280;71432;56.558;9.036;2023-08-17T10:48:00;102451.53;;;23.10;44.22
81937;BME280;71432;56.558;9.036;2023-08-17T10:50:25;102441.78;;;23.22;43.80
81937;BME280;71432;56.558;9.036;2023-08-17T10:52:53;102447.44;;;23.28;44.33
81937;BME280;71432;56.558;9.036;2023-08-17T10:55:35;102444.34;;;23.34;44.47
81937;BME280;71432;56.558;9.036;2023-08-17T10:58:01;102452.38;;;23.33;44.30
81937;BME280;71432;56.558;9.036;2023-08-17T11:00:33;102451.78;;;23.29;44.09
81937;BME280;71432;56.558;9.036;2023-08-17T11:03:03;102443.22;;;23.37;44.10
81937;BME280;71432;56.558;9.036;2023-08-17T11:05:58;102444.19;;;23.36;44.57
81937;BME280;71432;56.558;9.036;2023-08-17T11:08:39;102448.19;;;23.30;44.13
81937;BME280;71432;56.558;9.036;2023-08-17T11:11:16;102443.50;;;23.34;44.27
81937;BME280;71432;56.558;9.036;2023-08-17T11:13:42;102444.78;;;23.39;44.19
81937;BME280;71432;56.558;9.036;2023-08-17T11:16:11;102452.72;;;23.39;44.32
81937;BME280;71432;56.558;9.036;2023-08-17T11:18:37;102455.84;;;23.33;44.65
81937;BME280;71432;56.558;9.036;2023-08-17T11:21:06;102451.78;;;23.29;44.30
81937;BME280;71432;56.558;9.036;2023-08-17T11:23:34;102453.91;;;23.35;44.43
81937;BME280;71432;56.558;9.036;2023-08-17T11:26:00;102457.75;;;23.31;44.21
81937;BME280;71432;56.558;9.036;2023-08-17T11:28:26;102460.88;;;23.36;44.43
81937;BME280;71432;56.558;9.036;2023-08-17T11:31:02;102462.00;;;23.45;44.92
81937;BME280;71432;56.558;9.036;2023-08-17T11:33:29;102462.00;;;23.34;44.53
81937;BME280;71432;56.558;9.036;2023-08-17T11:36:00;102463.78;;;23.33;44.35
81937;BME280;71432;56.558;9.036;2023-08-17T11:38:29;102457.91;;;23.30;44.56
81937;BME280;71432;56.558;9.036;2023-08-17T11:40:57;102466.69;;;23.30;44.48
81937;BME280;71432;56.558;9.036;2023-08-17T11:43:22;102470.88;;;23.33;44.85
81937;BME280;71432;56.558;9.036;2023-08-17T11:45:48;102467.03;;;23.26;44.82
81937;BME280;71432;56.558;9.036;2023-08-17T11:48:14;102468.84;;;23.25;44.64
81937;BME280;71432;56.558;9.036;2023-08-17T11:50:42;102461.88;;;23.24;44.46
81937;BME280;71432;56.558;9.036;2023-08-17T11:53:07;102465.84;;;23.30;44.58
81937;BME280;71432;56.558;9.036;2023-08-17T11:55:33;102469.31;;;23.30;44.14
81937;BME280;71432;56.558;9.036;2023-08-17T11:57:58;102471.22;;;23.28;44.26
81937;BME280;71432;56.558;9.036;2023-08-17T12:00:23;102469.31;;;23.19;44.57
81937;BME280;71432;56.558;9.036;2023-08-17T12:02:51;102474.47;;;23.21;44.30
81937;BME280;71432;56.558;9.036;2023-08-17T12:05:24;102473.13;;;23.26;44.62
81937;BME280;71432;56.558;9.036;2023-08-17T12:07:50;102467.13;;;23.35;44.47
81937;BME280;71432;56.558;9.036;2023-08-17T12:10:18;102461.00;;;23.35;44.57
81937;BME280;71432;56.558;9.036;2023-08-17T12:12:44;102463.31;;;23.28;44.84
81937;BME280;71432;56.558;9.036;2023-08-17T12:15:11;102459.72;;;23.29;44.85
81937;BME280;71432;56.558;9.036;2023-08-17T12:17:44;102449.63;;;23.23;44.54
81937;BME280;71432;56.558;9.036;2023-08-17T12:20:15;102459.94;;;23.26;44.61
81937;BME280;71432;56.558;9.036;2023-08-17T12:22:41;102447.69;;;23.25;45.16
81937;BME280;71432;56.558;9.036;2023-08-17T12:25:08;102455.63;;;23.25;44.74
81937;BME280;71432;56.558;9.036;2023-08-17T12:27:33;102457.44;;;23.25;45.05
81937;BME280;71432;56.558;9.036;2023-08-17T12:29:59;102462.47;;;23.28;44.85
81937;BME280;71432;56.558;9.036;2023-08-17T12:32:24;102466.56;;;23.21;45.12
81937;BME280;71432;56.558;9.036;2023-08-17T12:34:49;102458.03;;;23.28;45.27
81937;BME280;71432;56.558;9.036;2023-08-17T12:37:18;102466.91;;;23.27;44.70
81937;BME280;71432;56.558;9.036;2023-08-17T12:39:44;102466.66;;;23.19;44.98
81937;BME280;71432;56.558;9.036;2023-08-17T12:42:10;102465.34;;;23.25;45.08
81937;BME280;71432;56.558;9.036;2023-08-17T12:44:35;102459.72;;;23.29;45.48
81937;BME280;71432;56.558;9.036;2023-08-17T12:47:00;102462.00;;;23.34;45.24